Observations for KINLOSS RAF, United Kingdom (EGQK)

EGQK 130850Z AUTO 15012G22KT 9999 NCD 06/M00 Q1016  
EGQK 130750Z AUTO 14020KT 9999 NCD 06/00 Q1015  
EGQK 130650Z AUTO 15015G26KT 9999 NCD 06/M00 Q1016  
EGQK 130550Z AUTO 15022KT 9999 NCD 06/M01 Q1016 
EGQK 130450Z AUTO 15019KT 9999 NCD 06/M01 Q1016 
EGQK 130350Z AUTO 15016KT 9999 NCD 05/M01 Q1016 
EGQK 130250Z AUTO 17011KT 9999 NCD 06/M01 Q1016 
EGQK 130150Z AUTO 17014G30KT 9999 BKN036/// 06/M01 Q1017
EGQK 130050Z AUTO 16017G27KT 9999 FEW038/// 06/M01 Q1016
EGQK 122350Z AUTO 16013G23KT 9999 FEW039/// 06/M01 Q1017
EGQK 122250Z AUTO 13009G24KT 9999 FEW042/// 06/M01 Q1016
EGQK 122150Z AUTO 15015KT 9999 NCD 06/M01 Q1016 
EGQK 122050Z AUTO 14010KT 9999 BKN038/// 07/01 Q1016
EGQK 121950Z AUTO 12009KT 9999 BKN034/// BKN042/// 07/02 Q1016  
EGQK 121850Z AUTO 15008KT 9999 BKN028/// SCT130/// 07/03 Q1016  
EGQK 121750Z AUTO 14014KT 9999 OVC090/// 08/03 Q1016
EGQK 121650Z AUTO 12013KT 9999 OVC080/// 08/03 Q1016
EGQK 121550Z AUTO 14011KT 9999 OVC080/// 08/03 Q1016
EGQK 121450Z AUTO 16011G21KT 9999 BKN080/// BKN170/// 08/04 Q1016   
EGQK 121350Z AUTO 16014KT 9999 FEW130/// BKN170/// 09/03 Q1016  
EGQK 121250Z 15014KT 9999 FEW024 BKN150 09/04 Q1017 BLU 
EGQK 121150Z 13011KT 9999 FEW025 SCT120 BKN300 08/05 Q1017 BLU  
EGQK 121050Z 16012KT CAVOK 08/05 Q1018 BLU  
EGQK 120950Z 14014KT 9999 FEW040 BKN120 BKN250 08/05 Q1017 BLU  
EGQK 120917Z 15010KT CAVOK 08/05 Q1018 BLU  
EGQK 120850Z AUTO 06007KT 9999 BKN040/// SCT160/// 07/05 Q1018